createdAt,value
2023-04-26T00:01:10.925Z,5.65
2023-04-26T00:03:57.687Z,5.40
2023-04-26T00:06:44.087Z,5.29
2023-04-26T00:09:30.852Z,5.54
2023-04-26T00:12:17.386Z,5.51
2023-04-26T00:15:04.778Z,5.46
2023-04-26T00:17:51.657Z,5.19
2023-04-26T00:20:39.101Z,5.01
2023-04-26T00:23:26.169Z,5.23
2023-04-26T00:26:12.727Z,5.03
2023-04-26T00:28:58.907Z,5.46
2023-04-26T00:31:45.340Z,5.51
2023-04-26T00:34:34.138Z,5.35
2023-04-26T00:37:21.485Z,5.27
2023-04-26T00:40:09.000Z,5.15
2023-04-26T00:42:58.564Z,5.19
2023-04-26T00:45:45.965Z,5.21
2023-04-26T00:48:33.857Z,5.11
2023-04-26T00:51:20.815Z,4.96
2023-04-26T00:54:08.630Z,4.72
2023-04-26T00:56:55.459Z,4.70
2023-04-26T00:59:41.813Z,4.60
2023-04-26T01:02:28.447Z,4.41
2023-04-26T01:05:15.014Z,4.41
2023-04-26T01:08:04.855Z,4.08
2023-04-26T01:10:52.382Z,4.26
2023-04-26T01:13:38.900Z,4.10
2023-04-26T01:16:28.305Z,3.80
2023-04-26T01:19:15.185Z,3.79
2023-04-26T01:22:01.819Z,3.82
2023-04-26T01:24:51.054Z,3.92
2023-04-26T01:27:37.272Z,3.73
2023-04-26T01:30:23.945Z,3.97
2023-04-26T01:33:10.532Z,3.89
2023-04-26T01:35:57.207Z,3.97
2023-04-26T01:38:43.612Z,4.10
2023-04-26T01:41:30.177Z,4.06
2023-04-26T01:44:16.710Z,4.00
2023-04-26T01:47:03.307Z,4.37
2023-04-26T01:49:49.769Z,4.22
2023-04-26T01:52:36.345Z,4.14
2023-04-26T01:55:22.721Z,4.36
2023-04-26T01:58:08.931Z,4.49
2023-04-26T02:00:56.445Z,4.35
2023-04-26T02:03:43.009Z,4.44
2023-04-26T02:06:32.285Z,4.50
2023-04-26T02:09:18.435Z,4.28
2023-04-26T02:12:04.887Z,4.52
2023-04-26T02:14:51.235Z,4.58
2023-04-26T02:17:38.576Z,4.48
2023-04-26T02:20:24.954Z,4.66
2023-04-26T02:23:12.572Z,4.72
2023-04-26T02:25:59.027Z,4.89
2023-04-26T02:28:45.473Z,4.78
2023-04-26T02:31:33.213Z,4.92
2023-04-26T02:34:19.439Z,4.76
2023-04-26T02:37:07.454Z,4.81
2023-04-26T02:39:54.223Z,4.87
2023-04-26T02:42:40.769Z,4.56
2023-04-26T02:45:27.577Z,4.22
2023-04-26T02:48:13.947Z,4.33
2023-04-26T02:51:01.255Z,4.28
2023-04-26T02:53:47.944Z,4.11
2023-04-26T02:56:34.320Z,4.19
2023-04-26T02:59:20.512Z,3.99
2023-04-26T03:02:07.855Z,3.90
2023-04-26T03:04:56.047Z,3.74
2023-04-26T03:07:42.618Z,3.78
2023-04-26T03:10:28.926Z,3.72
2023-04-26T03:13:15.590Z,3.45
2023-04-26T03:16:01.942Z,3.58
2023-04-26T03:18:49.515Z,3.53
2023-04-26T03:21:36.347Z,3.20
2023-04-26T03:24:24.033Z,3.53
2023-04-26T03:27:10.825Z,3.40
2023-04-26T03:29:57.565Z,3.42
2023-04-26T03:32:44.282Z,3.84
2023-04-26T03:35:30.398Z,3.96
2023-04-26T03:38:17.569Z,3.76
2023-04-26T03:41:05.043Z,3.99
2023-04-26T03:43:51.516Z,4.08
2023-04-26T03:46:37.752Z,4.06
2023-04-26T03:49:24.370Z,3.97
2023-04-26T03:52:11.075Z,3.85
2023-04-26T03:54:57.444Z,4.30
2023-04-26T03:57:43.679Z,4.29
2023-04-26T04:00:30.255Z,4.39
2023-04-26T04:03:17.043Z,4.51
2023-04-26T04:06:03.564Z,4.60
2023-04-26T04:08:49.955Z,4.51
2023-04-26T04:11:36.841Z,4.62
2023-04-26T04:14:23.212Z,4.63
2023-04-26T04:17:09.482Z,4.53
2023-04-26T04:19:55.768Z,4.55
2023-04-26T04:22:42.219Z,4.62
2023-04-26T04:25:28.877Z,4.69
2023-04-26T04:28:18.921Z,4.78
2023-04-26T04:31:05.593Z,4.79
2023-04-26T04:33:52.133Z,4.65
2023-04-26T04:36:41.397Z,4.81
2023-04-26T04:39:27.573Z,4.81
2023-04-26T04:42:14.831Z,4.87
2023-04-26T04:45:01.128Z,4.75
2023-04-26T04:47:48.470Z,4.85
2023-04-26T04:50:35.842Z,4.86
2023-04-26T04:53:22.140Z,4.92
2023-04-26T04:56:08.847Z,4.78
2023-04-26T04:58:56.173Z,5.12
2023-04-26T05:01:42.398Z,5.11
2023-04-26T05:04:34.444Z,5.24
2023-04-26T05:07:22.947Z,5.06
2023-04-26T05:10:14.539Z,5.13
2023-04-26T05:13:01.090Z,5.09
2023-04-26T05:15:47.481Z,5.07
2023-04-26T05:18:33.672Z,4.96
2023-04-26T05:21:21.396Z,4.99
2023-04-26T05:24:07.631Z,4.74
2023-04-26T05:26:56.248Z,4.70
2023-04-26T05:30:08.492Z,4.73
2023-04-26T05:33:14.986Z,4.93
2023-04-26T05:36:09.635Z,5.32
2023-04-26T05:38:56.010Z,5.32
2023-04-26T05:41:42.425Z,5.46
2023-04-26T05:44:29.303Z,5.40
2023-04-26T05:47:15.605Z,5.41
2023-04-26T05:50:02.037Z,5.65
2023-04-26T05:52:48.394Z,5.75
2023-04-26T05:55:35.362Z,5.95
2023-04-26T05:58:22.110Z,5.99
2023-04-26T06:01:09.528Z,6.00
2023-04-26T06:03:59.158Z,6.31
2023-04-26T06:06:50.219Z,6.34
2023-04-26T06:09:36.826Z,6.35
2023-04-26T06:12:24.064Z,6.32
2023-04-26T06:15:12.228Z,6.40
2023-04-26T06:17:59.810Z,6.37
2023-04-26T06:20:46.806Z,6.51
2023-04-26T06:23:33.197Z,6.68
2023-04-26T06:26:20.234Z,7.05
2023-04-26T06:29:06.601Z,7.26
2023-04-26T06:31:53.157Z,7.60
2023-04-26T06:34:43.974Z,8.36
2023-04-26T06:37:30.472Z,8.86
2023-04-26T06:40:17.143Z,8.77
2023-04-26T06:43:03.984Z,9.21
2023-04-26T06:46:03.434Z,9.39
2023-04-26T06:48:54.372Z,9.03
2023-04-26T06:51:41.125Z,9.04
2023-04-26T06:54:29.585Z,8.71
2023-04-26T06:57:16.043Z,8.86
2023-04-26T07:00:04.035Z,8.36
2023-04-26T07:02:50.151Z,8.23
2023-04-26T07:05:36.564Z,8.23
2023-04-26T07:08:23.062Z,7.93
2023-04-26T07:11:10.570Z,8.22
2023-04-26T07:13:57.087Z,8.18
2023-04-26T07:16:45.285Z,7.91
2023-04-26T07:19:31.705Z,8.14
2023-04-26T07:22:17.969Z,8.33
2023-04-26T07:25:05.543Z,8.31
2023-04-26T07:27:52.325Z,8.15
2023-04-26T07:30:38.690Z,8.37
2023-04-26T07:33:25.245Z,8.19
2023-04-26T07:36:12.004Z,8.47
2023-04-26T07:38:58.605Z,8.50
2023-04-26T07:41:44.724Z,8.24
2023-04-26T07:44:31.196Z,8.41
2023-04-26T07:47:17.348Z,8.38
2023-04-26T07:50:04.280Z,8.44
2023-04-26T07:52:51.234Z,8.64
2023-04-26T07:55:37.651Z,8.76
2023-04-26T07:58:24.118Z,8.86
2023-04-26T08:01:11.813Z,8.95
2023-04-26T08:03:58.310Z,9.13
2023-04-26T08:06:48.497Z,9.17
2023-04-26T08:09:34.988Z,8.99
2023-04-26T08:12:21.240Z,9.00
2023-04-26T08:15:08.324Z,9.03
2023-04-26T08:17:55.221Z,9.15
2023-04-26T08:20:41.782Z,9.25
2023-04-26T08:23:28.496Z,9.64
2023-04-26T08:26:14.774Z,9.30
2023-04-26T08:29:00.857Z,9.61
2023-04-26T08:31:47.546Z,9.98
2023-04-26T08:34:33.924Z,10.17
2023-04-26T08:37:20.209Z,10.45
2023-04-26T08:40:10.466Z,10.44
2023-04-26T08:42:57.158Z,10.40
2023-04-26T08:45:46.876Z,10.30
2023-04-26T08:48:36.216Z,10.25
2023-04-26T08:51:23.386Z,10.44
2023-04-26T08:54:11.623Z,10.31
2023-04-26T08:56:59.615Z,10.72
2023-04-26T08:59:46.982Z,10.86
2023-04-26T09:02:34.726Z,10.79
2023-04-26T09:05:24.491Z,11.07
2023-04-26T09:08:18.122Z,11.36
2023-04-26T09:11:04.615Z,10.94
2023-04-26T09:13:51.628Z,11.11
2023-04-26T09:16:38.392Z,11.32
2023-04-26T09:19:44.760Z,11.30
2023-04-26T09:22:36.442Z,11.55
2023-04-26T09:25:31.079Z,11.65
2023-04-26T09:28:22.363Z,10.69
2023-04-26T09:31:08.767Z,11.27
2023-04-26T09:34:01.437Z,11.90
2023-04-26T09:36:49.802Z,12.66
2023-04-26T09:39:38.659Z,13.07
2023-04-26T09:42:24.891Z,13.30
2023-04-26T09:45:11.815Z,13.51
2023-04-26T09:48:21.954Z,13.72
2023-04-26T09:51:14.180Z,13.67
2023-04-26T09:54:01.322Z,13.72
2023-04-26T09:56:59.602Z,14.07
2023-04-26T09:59:54.998Z,14.17
2023-04-26T10:02:42.330Z,14.09
2023-04-26T10:05:31.636Z,14.22
2023-04-26T10:08:19.773Z,14.50
2023-04-26T10:11:12.875Z,14.34
2023-04-26T10:13:59.470Z,13.96
2023-04-26T10:16:46.211Z,13.98
2023-04-26T10:19:34.951Z,14.04
2023-04-26T10:22:25.352Z,14.36
2023-04-26T10:25:11.592Z,14.46
2023-04-26T10:27:57.929Z,13.68
2023-04-26T10:30:58.219Z,13.78
2023-04-26T10:33:44.738Z,13.64
2023-04-26T10:36:32.154Z,13.50
2023-04-26T10:39:22.969Z,13.35
2023-04-26T10:42:30.731Z,13.20
2023-04-26T10:45:27.810Z,13.62
2023-04-26T10:48:30.926Z,14.17
2023-04-26T10:51:17.567Z,14.34
2023-04-26T10:54:04.299Z,14.18
2023-04-26T10:56:51.055Z,14.66
2023-04-26T10:59:51.239Z,14.86
2023-04-26T11:02:53.512Z,14.99
2023-04-26T11:05:55.244Z,14.83
2023-04-26T11:08:43.094Z,15.08
2023-04-26T11:11:32.676Z,15.18
2023-04-26T11:14:19.293Z,15.26
2023-04-26T11:17:06.349Z,15.35
2023-04-26T11:19:53.097Z,15.45
2023-04-26T11:22:41.787Z,15.14
2023-04-26T11:25:29.255Z,15.31
2023-04-26T11:28:16.316Z,15.33
2023-04-26T11:31:04.310Z,15.43
2023-04-26T11:33:50.996Z,15.65
2023-04-26T11:36:38.484Z,15.80
2023-04-26T11:39:25.257Z,15.78
2023-04-26T11:42:12.616Z,15.48
2023-04-26T11:45:01.431Z,15.60
2023-04-26T11:47:47.898Z,15.60
2023-04-26T11:50:36.648Z,15.67
2023-04-26T11:53:23.297Z,15.84
2023-04-26T11:56:20.272Z,15.78
2023-04-26T11:59:06.762Z,15.61
2023-04-26T12:01:53.585Z,15.31
2023-04-26T12:04:44.570Z,15.56
2023-04-26T12:07:37.913Z,15.67
2023-04-26T12:10:35.943Z,15.70
2023-04-26T12:13:24.958Z,16.02
2023-04-26T12:16:25.578Z,16.48
2023-04-26T12:19:13.382Z,16.89
2023-04-26T12:22:00.065Z,16.75
2023-04-26T12:24:48.030Z,16.72
2023-04-26T12:27:34.245Z,16.19
2023-04-26T12:30:21.434Z,15.75
2023-04-26T12:33:23.087Z,15.43
2023-04-26T12:36:11.789Z,15.74
2023-04-26T12:38:58.293Z,16.04
2023-04-26T12:41:46.202Z,16.19
2023-04-26T12:44:32.500Z,16.52
2023-04-26T12:47:18.847Z,16.04
2023-04-26T12:50:06.011Z,15.96
2023-04-26T12:52:52.562Z,15.98
2023-04-26T12:55:38.791Z,15.58
2023-04-26T12:58:25.433Z,15.30
2023-04-26T13:01:15.844Z,14.79
2023-04-26T13:04:04.760Z,14.73
2023-04-26T13:06:51.885Z,14.83
2023-04-26T13:09:38.313Z,14.76
2023-04-26T13:12:25.027Z,14.32
2023-04-26T13:15:11.684Z,14.52
2023-04-26T13:17:58.054Z,14.53
2023-04-26T13:20:45.555Z,14.39
2023-04-26T13:23:31.987Z,14.36
2023-04-26T13:26:18.371Z,14.14
2023-04-26T13:29:05.125Z,14.04
2023-04-26T13:31:51.759Z,14.08
2023-04-26T13:34:39.752Z,14.57
2023-04-26T13:37:26.907Z,14.43
2023-04-26T13:40:13.432Z,15.11
2023-04-26T13:42:59.747Z,14.91
2023-04-26T13:45:46.109Z,14.88
2023-04-26T13:48:32.601Z,14.95
2023-04-26T13:51:19.427Z,14.88
2023-04-26T13:54:06.596Z,14.82
2023-04-26T13:56:53.502Z,14.97
2023-04-26T13:59:40.549Z,14.85
2023-04-26T14:02:27.316Z,15.00
2023-04-26T14:05:13.911Z,14.76
2023-04-26T14:08:00.884Z,14.65
2023-04-26T14:10:48.000Z,14.85
2023-04-26T14:13:34.130Z,14.49
2023-04-26T14:16:20.730Z,14.39
2023-04-26T14:19:07.217Z,14.05
2023-04-26T14:21:53.470Z,14.01
2023-04-26T14:24:40.101Z,13.67
2023-04-26T14:27:26.934Z,13.99
2023-04-26T14:30:14.366Z,13.71
2023-04-26T14:33:00.629Z,14.00
2023-04-26T14:35:47.022Z,13.90
2023-04-26T14:38:33.182Z,14.27
2023-04-26T14:41:19.835Z,14.61
2023-04-26T14:44:06.479Z,14.98
2023-04-26T14:46:53.520Z,15.17
2023-04-26T14:49:40.342Z,15.59
2023-04-26T14:52:28.861Z,15.72
2023-04-26T14:55:18.906Z,15.08
2023-04-26T14:58:05.594Z,14.80
2023-04-26T15:00:52.944Z,14.76
2023-04-26T15:03:40.333Z,14.75
2023-04-26T15:06:27.367Z,14.67
2023-04-26T15:09:13.677Z,14.71
2023-04-26T15:12:00.336Z,14.99
2023-04-26T15:14:46.464Z,14.82
2023-04-26T15:17:34.036Z,14.42
2023-04-26T15:20:20.605Z,14.48
2023-04-26T15:23:07.706Z,14.32
2023-04-26T15:25:54.253Z,14.27
2023-04-26T15:28:40.780Z,14.27
2023-04-26T15:31:26.990Z,14.21
2023-04-26T15:34:13.296Z,14.04
2023-04-26T15:37:00.238Z,13.96
2023-04-26T15:39:47.385Z,13.97
2023-04-26T15:42:33.700Z,13.94
2023-04-26T15:45:20.622Z,13.74
2023-04-26T15:48:07.119Z,13.94
2023-04-26T15:50:56.923Z,13.91
2023-04-26T15:53:44.075Z,13.70
2023-04-26T15:56:30.787Z,13.29
2023-04-26T15:59:17.033Z,13.32
2023-04-26T16:02:03.576Z,13.25
2023-04-26T16:04:50.337Z,12.89
2023-04-26T16:07:38.851Z,12.98
2023-04-26T16:10:25.480Z,12.87
2023-04-26T16:13:11.627Z,12.67
2023-04-26T16:15:58.037Z,12.56
2023-04-26T16:18:44.406Z,12.60
2023-04-26T16:21:30.787Z,12.59
2023-04-26T16:24:16.936Z,12.60
2023-04-26T16:27:04.611Z,12.29
2023-04-26T16:29:50.937Z,12.09
2023-04-26T16:32:37.103Z,11.95
2023-04-26T16:35:23.914Z,12.07
2023-04-26T16:38:10.532Z,11.85
2023-04-26T16:40:58.128Z,11.85
2023-04-26T16:43:45.934Z,11.66
2023-04-26T16:46:32.714Z,11.75
2023-04-26T16:49:19.427Z,11.50
2023-04-26T16:52:05.969Z,11.54
2023-04-26T16:54:52.283Z,11.31
2023-04-26T16:57:38.606Z,11.30
2023-04-26T17:00:25.299Z,11.26
2023-04-26T17:03:12.491Z,11.42
2023-04-26T17:05:58.933Z,11.13
2023-04-26T17:08:45.517Z,11.15
2023-04-26T17:11:32.094Z,10.98
2023-04-26T17:14:18.365Z,11.15
2023-04-26T17:17:04.560Z,11.09
2023-04-26T17:19:50.822Z,11.22
2023-04-26T17:22:37.139Z,11.51
2023-04-26T17:25:24.332Z,11.52
2023-04-26T17:28:11.310Z,11.57
2023-04-26T17:30:57.812Z,11.93
2023-04-26T17:33:44.147Z,11.95
2023-04-26T17:36:31.775Z,11.88
2023-04-26T17:39:18.176Z,11.70
2023-04-26T17:42:04.734Z,11.57
2023-04-26T17:44:51.494Z,11.53
2023-04-26T17:47:37.679Z,11.58
2023-04-26T17:50:24.259Z,11.36
2023-04-26T17:53:10.786Z,11.50
2023-04-26T17:55:57.503Z,11.28
2023-04-26T17:58:44.040Z,11.16
2023-04-26T18:01:30.565Z,10.95
2023-04-26T18:04:17.131Z,10.80
2023-04-26T18:07:04.247Z,10.67
2023-04-26T18:09:50.890Z,10.47
2023-04-26T18:12:37.461Z,10.25
2023-04-26T18:15:24.289Z,10.28
2023-04-26T18:18:10.968Z,10.21
2023-04-26T18:20:57.658Z,10.09
2023-04-26T18:23:45.460Z,10.21
2023-04-26T18:26:32.311Z,9.89
2023-04-26T18:29:18.964Z,9.79
2023-04-26T18:32:05.763Z,9.76
2023-04-26T18:34:52.287Z,9.80
2023-04-26T18:37:39.645Z,9.35
2023-04-26T18:40:25.945Z,9.32
2023-04-26T18:43:12.472Z,9.19
2023-04-26T18:45:59.076Z,9.18
2023-04-26T18:48:46.110Z,9.15
2023-04-26T18:51:32.697Z,8.94
2023-04-26T18:54:19.092Z,8.92
2023-04-26T18:57:05.526Z,8.46
2023-04-26T18:59:52.668Z,8.63
2023-04-26T19:02:41.832Z,8.31
2023-04-26T19:05:28.966Z,8.43
2023-04-26T19:08:16.000Z,8.20
2023-04-26T19:11:03.083Z,8.15
2023-04-26T19:13:49.680Z,8.16
2023-04-26T19:16:36.327Z,7.82
2023-04-26T19:19:22.988Z,7.91
2023-04-26T19:22:09.358Z,7.61
2023-04-26T19:24:55.636Z,7.73
2023-04-26T19:27:42.273Z,7.75
2023-04-26T19:30:28.595Z,7.71
2023-04-26T19:33:15.585Z,7.58
2023-04-26T19:36:02.306Z,7.50
2023-04-26T19:38:48.645Z,7.43
2023-04-26T19:41:35.162Z,7.68
2023-04-26T19:44:21.736Z,7.49
2023-04-26T19:47:08.932Z,7.67
2023-04-26T19:49:57.413Z,7.53
2023-04-26T19:52:43.950Z,7.54
2023-04-26T19:55:30.226Z,7.14
2023-04-26T19:58:16.883Z,7.57
2023-04-26T20:01:03.624Z,7.41
2023-04-26T20:03:50.301Z,7.45
2023-04-26T20:06:36.615Z,7.18
2023-04-26T20:09:22.946Z,7.47
2023-04-26T20:12:09.220Z,7.18
2023-04-26T20:14:55.663Z,7.28
2023-04-26T20:17:43.300Z,7.13
2023-04-26T20:20:29.921Z,7.26
2023-04-26T20:23:16.527Z,7.33
2023-04-26T20:26:03.877Z,7.45
2023-04-26T20:28:50.436Z,7.46
2023-04-26T20:31:36.840Z,7.14
2023-04-26T20:34:23.303Z,7.07
2023-04-26T20:37:10.163Z,6.61
2023-04-26T20:39:57.762Z,6.72
2023-04-26T20:42:43.930Z,6.67
2023-04-26T20:45:30.304Z,6.50
2023-04-26T20:48:16.513Z,6.53
2023-04-26T20:51:03.222Z,6.35
2023-04-26T20:53:49.779Z,6.61
2023-04-26T20:56:36.924Z,6.46
2023-04-26T20:59:27.631Z,6.42
2023-04-26T21:02:14.385Z,6.38
2023-04-26T21:05:01.006Z,6.53
2023-04-26T21:07:47.475Z,6.49
2023-04-26T21:10:33.823Z,6.59
2023-04-26T21:13:20.357Z,6.71
2023-04-26T21:16:06.991Z,6.84
2023-04-26T21:18:53.583Z,6.66
2023-04-26T21:21:40.972Z,6.56
2023-04-26T21:24:27.424Z,6.62
2023-04-26T21:27:13.675Z,6.37
2023-04-26T21:30:03.437Z,6.34
2023-04-26T21:32:50.029Z,6.26
2023-04-26T21:35:36.696Z,6.12
2023-04-26T21:38:23.078Z,6.19
2023-04-26T21:41:09.329Z,6.03
2023-04-26T21:43:57.382Z,6.39
2023-04-26T21:46:43.789Z,6.22
2023-04-26T21:49:30.016Z,6.26
2023-04-26T21:52:16.546Z,6.32
2023-04-26T21:55:03.650Z,6.44
2023-04-26T21:57:50.127Z,6.52
2023-04-26T22:00:39.469Z,6.47
2023-04-26T22:03:26.435Z,6.31
2023-04-26T22:06:12.706Z,6.33
2023-04-26T22:08:59.316Z,6.51
2023-04-26T22:11:47.011Z,6.26
2023-04-26T22:14:33.427Z,6.52
2023-04-26T22:17:20.455Z,6.49
2023-04-26T22:20:08.063Z,6.51
2023-04-26T22:22:54.664Z,6.33
2023-04-26T22:25:40.854Z,6.49
2023-04-26T22:28:27.580Z,6.23
2023-04-26T22:31:14.246Z,6.49
2023-04-26T22:34:00.897Z,6.54
2023-04-26T22:36:47.364Z,6.44
2023-04-26T22:39:33.485Z,6.58
2023-04-26T22:42:19.987Z,6.46
2023-04-26T22:45:07.543Z,6.13
2023-04-26T22:47:54.098Z,6.49
2023-04-26T22:50:40.530Z,6.40
2023-04-26T22:53:27.138Z,6.33
2023-04-26T22:56:13.435Z,6.19
2023-04-26T22:58:59.533Z,6.21
2023-04-26T23:01:46.588Z,6.11
2023-04-26T23:04:32.975Z,6.14
2023-04-26T23:07:19.704Z,6.09
2023-04-26T23:10:06.987Z,6.05
2023-04-26T23:12:53.532Z,5.96
2023-04-26T23:15:39.814Z,6.08
2023-04-26T23:18:29.966Z,6.00
2023-04-26T23:21:16.697Z,6.14
2023-04-26T23:24:03.332Z,6.00
2023-04-26T23:26:49.731Z,5.91
2023-04-26T23:29:36.221Z,5.79
2023-04-26T23:32:22.549Z,5.74
2023-04-26T23:35:09.511Z,5.74
2023-04-26T23:37:56.007Z,5.41
2023-04-26T23:40:42.372Z,5.75
2023-04-26T23:43:28.570Z,5.77
2023-04-26T23:46:15.337Z,5.47
2023-04-26T23:49:01.532Z,5.74
2023-04-26T23:51:47.644Z,5.63
2023-04-26T23:54:34.430Z,5.90
2023-04-26T23:57:21.060Z,6.16
